메인 페이지
위성 영상 10일간 예보기후바다 날씨 사이클론 낙뢰 공항FAQ 뉴스레터 소개
날씨 : 유럽 아프리카 북아메리카 남아메리카 아시아 오스트레일리아-오세아니아 기타
언어 문의하기

칭다오, 중국

칭다오 류팅 국제공항

위도: 36-04N, 경도: 120-20E, 고도: 77m


METAR: ZSQD 022200Z VRB01MPS 4500 BR NSC 05/00 Q1011 BECMG TL2330 30005MPS
TAF: ZSQD 021523Z 0218/0318 32004MPS 5000 BR NSC TX08/0306Z TNM03/17Z BECMG 0300/0301 35009G15MPS BECMG 0313/0314 34004MPS

시각: 07:03 (23:03 UTC)

현재 날씨관측

예보는 1 시간 3분 전, 22:00시(UTC)에 발표되었습니다.
여러 방향의 바람 2kt
온도 5°C
습도 70%
기압 1011 hPa
시정: 4500m
박무

단위계 변경

예보

예보는 7 시간 40분 전, 15:23시(UTC)에 발표되었습니다.
예보 대상 시간: 02일 18시부터 03일 18시까지 (UTC)
북서8kt
시정: 5000m
박무
전환 중
03일 00시부터 03일 01시까지 (UTC)
17kt, 순간 최대 풍속 29kt
전환 중
03일 13시부터 03일 14시까지 (UTC)
북북서8kt
이 웹사이트상의 정보에 대하여 어떠한 법적 책임을 지지 않습니다 (면책 조항)
날씨 : 유럽 아프리카 북아메리카 남아메리카 아시아 오스트레일리아-오세아니아 기타
위성 영상 10일간 예보기후바다 날씨 사이클론 낙뢰 공항FAQ 언어 문의하기 뉴스레터 소개